Time;durP1;ratioP1;P1;durP2;ratioP2;P2;SDS_P1;SDS_P2;PMS_P1;PMS_P2;Temp;Humidity;BMP_temperature;BMP_pressure;BME280_temperature;BME280_humidity;BME280_pressure;Samples;Min_cycle;Max_cycle;Signal;HPM_P1;HPM_P2
2021/01/31 00:00:46;;;;;;;6.28;3.85;;;;;;;1.65;85.84;97297.88;5040861;28;20045;-82
2021/01/31 00:03:15;;;;;;;6.30;3.42;;;;;;;1.80;85.64;97315.91;5032568;28;20049;-82
2021/01/31 00:05:43;;;;;;;5.13;3.90;;;;;;;1.69;86.01;97326.00;5031327;28;20481;-82
2021/01/31 00:08:13;;;;;;;6.47;4.63;;;;;;;1.87;86.26;97335.66;5036439;28;20489;-82
2021/01/31 00:10:40;;;;;;;7.10;5.00;;;;;;;1.78;86.20;97324.13;5044086;28;20437;-82
2021/01/31 00:13:09;;;;;;;8.02;4.72;;;;;;;1.94;85.22;97341.97;5047170;28;20063;-82
2021/01/31 00:15:38;;;;;;;5.33;3.57;;;;;;;1.83;85.32;97328.97;5047744;28;20044;-82
2021/01/31 00:18:10;;;;;;;6.70;4.78;;;;;;;1.86;83.89;97333.97;5043940;28;20046;-81
2021/01/31 00:20:39;;;;;;;6.00;4.45;;;;;;;1.88;84.88;97351.56;5031771;28;20052;-81
2021/01/31 00:23:09;;;;;;;6.45;4.60;;;;;;;1.73;83.89;97318.44;5037665;28;20049;-81
2021/01/31 00:25:49;;;;;;;;;;;;;;;1.87;84.18;97341.00;5047058;28;20041;-81
2021/01/31 00:28:19;;;;;;;6.22;4.40;;;;;;;1.68;85.07;97339.56;5031669;28;19921;-81
2021/01/31 00:30:47;;;;;;;4.95;3.80;;;;;;;1.53;84.06;97321.53;5041689;28;20060;-82
2021/01/31 00:33:16;;;;;;;6.68;4.15;;;;;;;1.64;85.00;97333.72;5054836;28;20044;-81
2021/01/31 00:35:47;;;;;;;7.53;4.95;;;;;;;1.67;85.15;97333.38;5040377;28;20563;-82
2021/01/31 00:38:20;;;;;;;6.30;4.75;;;;;;;1.59;83.77;97330.72;5044128;28;20446;-82
2021/01/31 00:40:48;;;;;;;8.90;4.93;;;;;;;1.41;84.63;97312.19;5042716;28;20045;-81
2021/01/31 00:43:16;;;;;;;7.30;5.22;;;;;;;1.67;85.16;97341.44;5049078;28;20041;-81
2021/01/31 00:45:45;;;;;;;7.60;5.03;;;;;;;1.58;85.35;97337.06;5037518;28;20053;-81
2021/01/31 00:48:12;;;;;;;7.63;5.10;;;;;;;1.61;84.96;97339.41;5038866;28;20045;-81
2021/01/31 00:50:57;;;;;;;7.13;4.85;;;;;;;1.52;84.34;97340.44;5045209;28;20103;-82
2021/01/31 00:53:23;;;;;;;7.38;4.90;;;;;;;1.47;84.95;97340.13;5031671;28;20057;-82
2021/01/31 00:55:53;;;;;;;7.13;5.15;;;;;;;1.62;84.50;97356.34;5036082;28;20041;-82
2021/01/31 00:58:19;;;;;;;;;;;;;;;1.47;85.29;97350.84;5038315;28;20076;-82
2021/01/31 01:00:46;;;;;;;11.77;5.50;;;;;;;1.50;84.79;97363.91;5050617;28;19927;-82
2021/01/31 01:03:13;;;;;;;9.23;5.85;;;;;;;1.30;84.60;97325.97;5049262;28;20408;-81
2021/01/31 01:05:40;;;;;;;8.00;5.47;;;;;;;1.50;83.79;97345.16;5032867;28;20132;-82
2021/01/31 01:08:09;;;;;;;8.27;5.55;;;;;;;1.46;84.13;97330.44;5039355;28;20088;-82
2021/01/31 01:10:38;;;;;;;7.93;5.55;;;;;;;1.40;83.71;97350.69;5055185;28;20053;-82
2021/01/31 01:13:29;;;;;;;;;;;;;;;;;;;;;
2021/01/31 01:16:00;;;;;;;7.70;4.65;;;;;;;1.39;84.03;97365.09;5034237;28;20046;-82
2021/01/31 01:18:31;;;;;;;8.82;5.90;;;;;;;1.30;84.27;97340.19;5036410;28;20072;-80
2021/01/31 01:21:00;;;;;;;9.77;5.78;;;;;;;1.41;85.01;97353.19;5051976;28;20049;-82
2021/01/31 01:23:26;;;;;;;12.48;6.35;;;;;;;1.45;83.24;97361.75;5053159;28;20492;-82
2021/01/31 01:25:53;;;;;;;7.80;6.13;;;;;;;1.41;83.90;97358.56;5038166;28;20132;-82
2021/01/31 01:28:23;;;;;;;7.43;5.70;;;;;;;1.02;84.32;97331.69;5044705;28;20045;-80
2021/01/31 01:30:49;;;;;;;7.55;5.63;;;;;;;1.19;84.64;97345.88;5034545;28;20045;-81
2021/01/31 01:33:19;;;;;;;9.68;6.25;;;;;;;1.25;83.96;97350.59;5034402;28;20045;-80
2021/01/31 01:35:47;;;;;;;7.80;5.72;;;;;;;1.23;84.35;97347.22;5047782;28;20052;-80
2021/01/31 01:38:14;;;;;;;9.48;5.93;;;;;;;1.32;84.18;97375.66;5051647;28;20400;-80
2021/01/31 01:40:41;;;;;;;10.13;5.97;;;;;;;1.09;84.77;97353.28;5049186;28;20127;-80
2021/01/31 01:43:18;;;;;;;10.10;5.65;;;;;;;1.20;83.95;97368.97;5048428;28;20618;-81
2021/01/31 01:45:56;;;;;;;9.93;6.32;;;;;;;1.05;84.72;97345.59;5046901;28;20068;-80
2021/01/31 01:48:22;;;;;;;7.82;5.88;;;;;;;1.14;85.35;97367.81;5044718;28;20131;-80
2021/01/31 01:50:51;;;;;;;10.00;5.97;;;;;;;1.11;84.31;97370.81;5054289;28;20520;-81
2021/01/31 01:53:25;;;;;;;8.63;5.68;;;;;;;1.24;84.55;97392.56;5053435;28;20049;-80
2021/01/31 01:55:58;;;;;;;8.87;5.77;;;;;;;1.15;85.80;97380.19;5035245;28;20053;-81
2021/01/31 01:58:24;;;;;;;12.30;6.53;;;;;;;1.18;84.87;97371.81;5035578;28;20049;-80
2021/01/31 02:00:53;;;;;;;9.88;6.40;;;;;;;1.22;84.70;97375.00;5035934;28;20045;-81
2021/01/31 02:03:22;;;;;;;6.85;5.53;;;;;;;1.13;83.78;97355.44;5034960;28;20045;-80
2021/01/31 02:05:55;;;;;;;11.40;6.72;;;;;;;1.08;84.47;97368.47;5036515;28;20061;-80
2021/01/31 02:08:21;;;;;;;9.03;6.37;;;;;;;0.88;84.38;97366.16;5035537;28;20076;-80
2021/01/31 02:10:47;;;;;;;9.03;5.43;;;;;;;0.86;84.94;97368.19;5035497;28;20057;-80
2021/01/31 02:13:15;;;;;;;8.07;5.83;;;;;;;0.87;84.50;97382.38;5046267;28;20053;-80
2021/01/31 02:15:41;;;;;;;9.47;6.37;;;;;;;0.91;85.07;97383.72;5054891;28;20045;-80
2021/01/31 02:18:20;;;;;;;11.20;6.33;;;;;;;1.03;85.46;97409.13;5046254;28;20118;-80
2021/01/31 02:21:20;;;;;;;9.97;6.73;;;;;;;1.04;84.67;97407.31;5040909;28;20530;-80
2021/01/31 02:24:30;;;;;;;9.57;6.53;;;;;;;1.00;84.88;97409.47;5042305;28;20045;-80
2021/01/31 02:27:30;;;;;;;9.43;6.27;;;;;;;1.04;84.48;97410.00;5043678;28;20057;-80
2021/01/31 02:30:43;;;;;;;10.32;6.72;;;;;;;1.06;84.31;97405.28;5044939;28;20049;-81
2021/01/31 02:33:30;;;;;;;8.53;5.40;;;;;;;0.94;83.58;97403.97;5061691;28;20052;-80
2021/01/31 02:36:04;;;;;;;8.73;5.90;;;;;;;0.91;84.87;97406.97;5033330;28;20057;-80
2021/01/31 02:38:35;;;;;;;9.20;5.90;;;;;;;0.97;83.95;97412.47;5034146;28;20140;-80
2021/01/31 02:41:25;;;;;;;10.87;6.43;;;;;;;1.05;84.59;97417.84;5034216;28;20130;-80
2021/01/31 02:43:55;;;;;;;8.18;5.22;;;;;;;0.95;84.02;97402.94;5034379;28;20091;-80
2021/01/31 02:46:31;;;;;;;10.60;6.78;;;;;;;1.04;85.04;97416.16;5043134;28;20041;-80
2021/01/31 02:49:05;;;;;;;9.47;6.17;;;;;;;0.89;86.83;97399.13;5054234;28;20115;-81
2021/01/31 02:51:36;;;;;;;12.25;6.60;;;;;;;1.05;85.04;97417.00;5050577;28;20535;-81
2021/01/31 02:54:07;;;;;;;8.23;4.97;;;;;;;1.05;84.85;97412.50;5054021;28;20480;-81
2021/01/31 02:56:39;;;;;;;8.75;6.25;;;;;;;1.05;85.89;97408.97;5060036;28;20045;-80
2021/01/31 02:59:11;;;;;;;8.45;6.10;;;;;;;1.04;84.75;97410.00;5037281;28;20397;-80
2021/01/31 03:01:42;;;;;;;8.93;6.50;;;;;;;0.97;84.89;97411.66;5050854;28;20055;-80
2021/01/31 03:04:15;;;;;;;10.40;5.15;;;;;;;0.91;86.12;97425.72;5053513;28;20045;-80
2021/01/31 03:06:46;;;;;;;12.20;6.57;;;;;;;0.90;86.15;97421.34;5053763;28;20049;-80
2021/01/31 03:09:20;;;;;;;9.70;6.80;;;;;;;0.82;85.37;97401.59;5054022;28;20100;-81
2021/01/31 03:11:52;;;;;;;10.40;6.87;;;;;;;1.00;85.87;97414.81;5053883;28;20055;-80
2021/01/31 03:14:23;;;;;;;13.93;6.80;;;;;;;0.98;86.19;97413.31;5053277;28;20103;-81
2021/01/31 03:16:54;;;;;;;11.67;7.40;;;;;;;1.02;85.35;97423.53;5054011;28;20049;-81
2021/01/31 03:19:27;;;;;;;11.43;6.93;;;;;;;0.95;85.71;97419.00;5054010;28;20056;-81
2021/01/31 03:21:58;;;;;;;12.30;7.23;;;;;;;0.97;86.17;97422.34;5053061;28;20037;-81
2021/01/31 03:24:29;;;;;;;;;;;;;;;1.04;85.64;97426.88;5053125;28;20049;-81
2021/01/31 03:27:00;;;;;;;10.27;6.30;;;;;;;0.86;85.09;97405.63;5052875;28;19925;-81
2021/01/31 03:29:26;;;;;;;10.20;6.67;;;;;;;0.77;85.00;97408.44;5053416;28;20416;-81
2021/01/31 03:31:57;;;;;;;12.27;7.30;;;;;;;0.77;85.85;97432.53;5053474;28;20076;-81
2021/01/31 03:34:31;;;;;;;11.93;6.87;;;;;;;0.42;87.04;97413.06;5041851;28;20061;-81
2021/01/31 03:37:13;;;;;;;13.60;7.67;;;;;;;0.53;86.78;97418.13;5033201;28;20136;-81
2021/01/31 03:39:44;;;;;;;13.83;7.43;;;;;;;0.74;85.90;97449.75;5031164;28;20111;-81
2021/01/31 03:42:12;;;;;;;12.57;7.53;;;;;;;0.73;86.91;97450.75;5033360;28;20049;-80
2021/01/31 03:44:42;;;;;;;12.17;7.67;;;;;;;0.69;86.30;97441.38;5032402;28;20050;-81
2021/01/31 03:47:16;;;;;;;11.83;7.80;;;;;;;0.58;86.52;97431.00;5033143;28;20489;-81
2021/01/31 03:49:49;;;;;;;14.70;8.83;;;;;;;0.64;86.95;97431.16;5032469;28;20085;-81
2021/01/31 03:52:16;;;;;;;12.20;7.63;;;;;;;0.54;87.38;97425.13;5048680;28;20178;-81
2021/01/31 03:54:43;;;;;;;13.43;8.80;;;;;;;0.70;87.37;97451.91;5031855;28;20061;-81
2021/01/31 03:57:14;;;;;;;15.60;8.80;;;;;;;0.63;87.20;97437.53;5046897;28;20045;-81
2021/01/31 03:59:45;;;;;;;12.67;7.87;;;;;;;0.60;87.99;97429.00;5052136;28;20061;-81
2021/01/31 04:02:13;;;;;;;13.60;8.57;;;;;;;0.58;87.21;97406.94;5052047;28;20053;-81
2021/01/31 04:04:42;;;;;;;13.17;8.37;;;;;;;0.70;87.40;97433.19;5048686;28;20046;-81
2021/01/31 04:07:10;;;;;;;14.63;8.05;;;;;;;0.72;87.32;97434.88;5052094;28;20048;-81
2021/01/31 04:09:39;;;;;;;13.03;7.90;;;;;;;0.74;86.86;97454.25;5052078;28;20072;-81
2021/01/31 04:12:09;;;;;;;13.73;8.75;;;;;;;0.62;86.47;97427.84;5052516;28;20048;-81
2021/01/31 04:14:45;;;;;;;11.77;7.03;;;;;;;0.69;85.59;97438.69;5051716;28;20045;-81
2021/01/31 04:17:11;;;;;;;11.50;6.87;;;;;;;0.81;86.28;97474.00;5052309;28;20111;-81
2021/01/31 04:19:38;;;;;;;11.50;6.70;;;;;;;0.69;84.35;97458.28;5052417;28;20056;-81
2021/01/31 04:22:04;;;;;;;12.43;7.13;;;;;;;0.75;84.99;97462.13;5052692;28;20049;-81
2021/01/31 04:24:31;;;;;;;10.40;7.10;;;;;;;0.60;85.46;97461.91;5051403;28;20051;-80
2021/01/31 04:26:57;;;;;;;11.73;6.93;;;;;;;0.65;85.08;97451.59;5052154;28;20045;-80
2021/01/31 04:29:24;;;;;;;10.50;6.70;;;;;;;0.63;85.19;97450.91;5052510;28;20056;-81
2021/01/31 04:31:53;;;;;;;11.33;6.50;;;;;;;0.56;85.26;97438.34;5052363;28;20064;-81
2021/01/31 04:34:19;;;;;;;12.68;7.32;;;;;;;0.74;85.38;97471.16;5051724;28;20061;-80
2021/01/31 04:36:46;;;;;;;10.67;6.23;;;;;;;0.73;85.31;97457.94;5047640;28;20041;-81
2021/01/31 04:39:13;;;;;;;12.83;7.67;;;;;;;0.76;85.78;97452.28;5054468;28;20094;-81
2021/01/31 04:41:42;;;;;;;13.80;7.60;;;;;;;0.78;84.53;97432.34;5056878;28;20045;-80
2021/01/31 04:44:12;;;;;;;11.80;7.00;;;;;;;0.84;84.60;97445.09;5055968;28;20049;-80
2021/01/31 04:46:43;;;;;;;13.57;7.60;;;;;;;0.86;85.91;97444.94;5056766;28;20060;-81
2021/01/31 04:49:23;;;;;;;13.07;8.23;;;;;;;0.84;84.40;97438.91;5056660;28;20060;-80
2021/01/31 04:52:02;;;;;;;11.10;6.70;;;;;;;0.83;84.80;97438.06;5053962;28;20106;-80
2021/01/31 04:54:44;;;;;;;14.25;7.18;;;;;;;0.76;85.28;97431.69;5055473;28;20057;-80
2021/01/31 04:57:13;;;;;;;10.53;6.53;;;;;;;0.90;83.69;97432.88;5055726;28;20565;-80
2021/01/31 04:59:44;;;;;;;18.17;8.53;;;;;;;0.82;84.89;97441.72;5056336;28;20052;-80
2021/01/31 05:02:16;;;;;;;12.17;7.67;;;;;;;0.70;83.91;97419.00;5056211;28;20083;-80
2021/01/31 05:04:52;;;;;;;13.27;7.60;;;;;;;0.72;84.40;97426.84;5054817;28;20630;-81
2021/01/31 05:07:23;;;;;;;13.80;7.80;;;;;;;0.66;85.47;97431.88;5056250;28;20052;-81
2021/01/31 05:09:49;;;;;;;10.60;6.20;;;;;;;0.83;84.70;97443.41;5055972;28;20493;-80
2021/01/31 05:12:22;;;;;;;13.47;8.10;;;;;;;0.74;84.42;97427.50;5056177;28;20083;-80
2021/01/31 05:15:19;;;;;;;13.00;6.93;;;;;;;0.77;85.23;97446.75;5055277;28;20409;-80
2021/01/31 05:17:47;;;;;;;11.43;7.43;;;;;;;0.71;83.85;97434.03;5047822;28;20143;-81
2021/01/31 05:20:17;;;;;;;12.23;7.38;;;;;;;0.64;84.69;97430.34;5055718;28;20056;-80
2021/01/31 05:22:46;;;;;;;;;;;;;;;0.87;84.51;97454.63;5056037;28;20068;-80
2021/01/31 05:25:16;;;;;;;12.63;7.33;;;;;;;0.74;85.30;97451.59;5054697;28;19935;-80
2021/01/31 05:27:44;;;;;;;;;;;;;;;0.84;85.13;97463.81;5055843;28;20497;-80
2021/01/31 05:30:12;;;;;;;11.40;7.37;;;;;;;0.85;84.54;97472.69;5055802;28;19924;-80
2021/01/31 05:33:02;;;;;;;13.73;7.93;;;;;;;0.88;83.65;97475.84;5054834;28;20056;-80
2021/01/31 05:35:29;;;;;;;12.35;7.82;;;;;;;0.77;84.26;97459.28;5055093;28;20048;-80
2021/01/31 05:37:56;;;;;;;11.17;7.83;;;;;;;0.61;84.09;97447.56;5055506;28;20041;-80
2021/01/31 05:40:30;;;;;;;15.13;7.90;;;;;;;0.48;84.91;97442.69;5055612;28;20651;-80
2021/01/31 05:42:58;;;;;;;12.20;7.23;;;;;;;0.55;84.82;97452.72;5055204;28;20401;-80
2021/01/31 05:45:32;;;;;;;13.20;8.30;;;;;;;0.70;85.49;97486.69;5054704;28;20047;-80
2021/01/31 05:47:59;;;;;;;13.93;7.57;;;;;;;0.53;84.65;97455.56;5055630;28;20106;-80
2021/01/31 05:50:33;;;;;;;12.73;8.37;;;;;;;0.52;84.07;97453.88;5054276;28;20115;-80
2021/01/31 05:53:21;;;;;;;14.07;8.37;;;;;;;0.63;84.47;97488.34;5049460;28;20071;-80
2021/01/31 05:55:48;;;;;;;13.77;7.63;;;;;;;0.63;84.70;97476.81;5054477;28;20049;-80
2021/01/31 05:58:17;;;;;;;12.27;7.40;;;;;;;0.50;85.27;97477.28;5055303;28;20053;-80
2021/01/31 06:00:45;;;;;;;17.00;7.80;;;;;;;0.51;85.55;97476.25;5054894;28;20048;-79
2021/01/31 06:03:12;;;;;;;12.97;7.13;;;;;;;0.55;85.95;97485.66;5054948;28;20053;-80
2021/01/31 06:05:39;;;;;;;11.87;7.73;;;;;;;0.54;85.42;97491.97;5054559;28;20050;-80
2021/01/31 06:08:08;;;;;;;14.07;8.57;;;;;;;0.51;84.77;97478.94;5055140;28;20045;-80
2021/01/31 06:10:39;;;;;;;13.77;7.93;;;;;;;0.53;85.24;97471.63;5054971;28;20585;-80
2021/01/31 06:13:12;;;;;;;11.20;6.83;;;;;;;0.56;84.72;97473.09;5054794;28;20052;-80
2021/01/31 06:15:54;;;;;;;11.60;7.87;;;;;;;0.61;85.06;97485.00;5054371;28;20056;-80
2021/01/31 06:18:25;;;;;;;12.10;7.57;;;;;;;0.69;85.39;97511.78;5054596;28;20079;-80
2021/01/31 06:20:51;;;;;;;12.63;7.23;;;;;;;0.68;85.21;97509.25;5054628;28;20057;-81
2021/01/31 06:23:31;;;;;;;13.45;7.72;;;;;;;0.68;85.79;97498.56;5054333;28;20068;-80
2021/01/31 06:25:58;;;;;;;12.37;7.33;;;;;;;0.68;85.16;97479.84;5053885;28;20411;-80
2021/01/31 06:28:29;;;;;;;16.80;8.27;;;;;;;0.72;83.52;97472.31;5054621;28;20048;-80
2021/01/31 06:31:26;;;;;;;15.33;7.80;;;;;;;0.74;84.49;97497.06;5054282;28;20052;-80
2021/01/31 06:33:52;;;;;;;11.43;7.67;;;;;;;0.83;83.73;97499.59;5049811;28;20385;-80
2021/01/31 06:36:40;;;;;;;13.43;7.70;;;;;;;0.82;83.07;97492.56;5053839;28;20057;-80
2021/01/31 06:39:15;;;;;;;12.40;7.33;;;;;;;0.80;83.74;97507.94;5054311;28;20049;-80
2021/01/31 06:41:57;;;;;;;10.70;7.13;;;;;;;0.68;83.99;97501.25;5054165;28;20488;-80
2021/01/31 06:44:39;;;;;;;16.00;7.13;;;;;;;0.85;83.33;97519.00;5053210;28;20045;-80
2021/01/31 06:47:27;;;;;;;12.03;7.40;;;;;;;0.67;84.41;97512.94;5054100;28;20045;-80
2021/01/31 06:50:07;;;;;;;15.43;8.83;;;;;;;0.84;84.88;97537.88;5053938;28;20053;-80
2021/01/31 06:52:47;;;;;;;12.85;6.93;;;;;;;0.85;84.47;97534.22;5051357;28;20098;-80
2021/01/31 06:55:33;;;;;;;13.30;8.17;;;;;;;0.82;85.36;97539.91;5053107;28;20099;-80
2021/01/31 06:58:17;;;;;;;11.83;8.10;;;;;;;0.50;84.86;97507.53;5054091;28;20060;-80
2021/01/31 07:01:10;;;;;;;12.43;7.47;;;;;;;0.59;85.15;97520.91;5054041;28;20048;-80
2021/01/31 07:04:12;;;;;;;17.20;7.87;;;;;;;0.77;85.24;97551.09;5045798;28;20107;-80
2021/01/31 07:07:05;;;;;;;11.10;7.00;;;;;;;0.60;84.50;97531.44;5001786;28;20148;-80
2021/01/31 07:09:45;;;;;;;17.57;8.80;;;;;;;0.55;84.70;97520.41;5053338;28;20493;-80
2021/01/31 07:12:21;;;;;;;14.90;7.35;;;;;;;0.59;86.21;97536.97;5054061;28;20049;-80
2021/01/31 07:14:54;;;;;;;12.23;7.53;;;;;;;0.76;85.86;97559.28;5052803;28;20048;-80
2021/01/31 07:17:30;;;;;;;12.77;7.80;;;;;;;0.68;86.05;97544.88;5053844;28;20056;-79
2021/01/31 07:20:05;;;;;;;15.57;8.37;;;;;;;0.68;85.09;97533.34;5053581;28;20045;-80
2021/01/31 07:22:41;;;;;;;12.37;6.70;;;;;;;0.77;84.91;97560.94;5053483;28;20420;-81
2021/01/31 07:25:13;;;;;;;12.73;7.23;;;;;;;0.85;84.47;97577.84;5052551;28;20101;-80
2021/01/31 07:27:51;;;;;;;13.60;8.13;;;;;;;0.65;84.43;97541.69;5048203;28;20046;-82
2021/01/31 07:30:23;;;;;;;12.60;7.63;;;;;;;0.81;84.43;97559.63;5033494;28;20058;-82
2021/01/31 07:33:11;;;;;;;15.10;8.00;;;;;;;0.92;84.28;97587.91;5033470;28;20053;-81
2021/01/31 07:35:47;;;;;;;15.07;9.30;;;;;;;0.84;84.35;97580.69;5032690;28;20103;-81
2021/01/31 07:38:19;;;;;;;13.47;8.10;;;;;;;0.73;84.89;97564.94;5032248;28;20049;-81
2021/01/31 07:40:52;;;;;;;11.93;7.67;;;;;;;0.79;84.46;97569.66;5038365;28;20045;-81
2021/01/31 07:43:20;;;;;;;14.33;7.87;;;;;;;0.89;84.64;97565.00;5051800;28;20063;-81
2021/01/31 07:45:46;;;;;;;13.23;7.25;;;;;;;0.96;84.38;97563.31;5052064;28;20048;-81
2021/01/31 07:48:44;;;;;;;14.77;8.10;;;;;;;0.97;84.45;97564.19;5052803;28;20056;-81
2021/01/31 07:51:15;;;;;;;12.67;8.47;;;;;;;1.09;84.06;97588.81;5051663;28;20056;-81
2021/01/31 07:53:43;;;;;;;14.10;7.80;;;;;;;0.99;84.41;97568.34;5052903;28;20169;-81
2021/01/31 07:56:31;;;;;;;13.20;7.57;;;;;;;1.08;82.93;97552.31;5052345;28;20382;-81
2021/01/31 07:59:00;;;;;;;13.63;8.05;;;;;;;1.24;83.74;97579.97;5052470;28;20205;-81
2021/01/31 08:01:47;;;;;;;15.30;8.00;;;;;;;1.16;83.35;97573.75;5052796;28;20060;-81
2021/01/31 08:04:47;;;;;;;15.80;8.40;;;;;;;1.10;83.84;97561.03;5050170;28;20048;-81
2021/01/31 08:07:58;;;;;;;11.98;7.28;;;;;;;1.19;83.18;97570.72;5043511;28;20500;-81
2021/01/31 08:10:47;;;;;;;11.20;7.40;;;;;;;1.15;84.16;97548.81;5072500;28;20059;-81
2021/01/31 08:13:37;;;;;;;14.53;8.40;;;;;;;1.34;83.36;97573.59;5065811;28;20045;-81
2021/01/31 08:16:36;;;;;;;13.55;8.15;;;;;;;1.29;82.47;97584.81;5052030;28;20481;-81
2021/01/31 08:19:09;;;;;;;14.80;8.20;;;;;;;1.07;83.86;97562.22;5052578;28;20049;-81
2021/01/31 08:21:54;;;;;;;15.18;9.02;;;;;;;1.18;84.29;97558.38;5052587;28;20130;-81
2021/01/31 08:25:00;;;;;;;16.07;8.50;;;;;;;1.37;83.65;97579.50;5050439;28;20048;-81
2021/01/31 08:27:56;;;;;;;14.23;7.77;;;;;;;1.28;83.57;97580.47;5052208;28;20049;-81
2021/01/31 08:30:29;;;;;;;12.23;7.57;;;;;;;1.42;83.87;97595.06;5052508;28;20064;-81
2021/01/31 08:33:27;;;;;;;16.67;8.17;;;;;;;1.45;84.13;97596.56;5052362;28;20057;-81
2021/01/31 08:36:02;;;;;;;16.20;9.07;;;;;;;1.22;83.39;97571.25;5051787;28;20072;-82
2021/01/31 08:38:37;;;;;;;13.68;8.10;;;;;;;1.38;83.43;97591.03;5052512;28;20045;-81
2021/01/31 08:41:53;;;;;;;15.77;9.53;;;;;;;1.38;83.03;97586.50;5052186;28;20053;-81
2021/01/31 08:44:42;;;;;;;13.30;8.20;;;;;;;1.37;84.17;97587.53;5050207;28;20045;-81
2021/01/31 08:47:09;;;;;;;13.05;8.45;;;;;;;1.26;84.18;97570.94;5044959;28;20053;-81
2021/01/31 08:49:35;;;;;;;12.50;8.53;;;;;;;1.40;83.93;97589.00;5052215;28;20061;-81
2021/01/31 08:52:05;;;;;;;13.37;8.40;;;;;;;1.14;83.86;97573.09;5051017;28;20060;-81
2021/01/31 08:54:31;;;;;;;13.30;8.98;;;;;;;1.16;83.96;97566.56;5051062;28;20568;-81
2021/01/31 08:57:00;;;;;;;12.10;8.50;;;;;;;1.29;83.53;97584.00;5052117;28;20048;-81
2021/01/31 08:59:28;;;;;;;13.87;8.43;;;;;;;1.12;83.25;97586.63;5052245;28;20416;-81
2021/01/31 09:02:21;;;;;;;14.10;7.97;;;;;;;1.39;84.88;97595.38;5051998;28;20053;-81
2021/01/31 09:04:52;;;;;;;13.13;7.73;;;;;;;1.44;83.87;97616.31;5045029;28;20052;-81
2021/01/31 09:07:25;;;;;;;13.40;8.53;;;;;;;1.55;83.85;97615.97;5051964;28;20916;-81
2021/01/31 09:09:55;;;;;;;15.43;8.85;;;;;;;1.36;84.32;97598.41;5051582;28;20154;-81
2021/01/31 09:12:24;;;;;;;14.60;8.50;;;;;;;1.63;83.42;97612.50;5050951;28;20456;-81
2021/01/31 09:14:53;;;;;;;14.43;8.60;;;;;;;1.59;83.22;97604.75;5051175;28;20164;-80
2021/01/31 09:17:25;;;;;;;14.40;8.37;;;;;;;1.45;82.55;97581.34;5051785;28;20127;-81
2021/01/31 09:20:07;;;;;;;14.80;8.80;;;;;;;1.55;82.58;97591.88;5051607;28;20397;-80
2021/01/31 09:22:35;;;;;;;15.93;9.07;;;;;;;1.71;82.95;97605.28;5052002;28;20398;-80
2021/01/31 09:25:04;;;;;;;17.00;9.10;;;;;;;1.70;82.93;97600.94;5051196;28;20382;-80
2021/01/31 09:27:31;;;;;;;16.13;9.93;;;;;;;1.61;82.57;97571.63;5055372;28;20056;-81
2021/01/31 09:30:01;;;;;;;15.20;9.47;;;;;;;1.58;82.37;97584.38;5055597;28;20162;-80
2021/01/31 09:32:33;;;;;;;14.52;7.82;;;;;;;1.60;82.23;97597.59;5055247;28;20542;-80
2021/01/31 09:34:59;;;;;;;14.90;9.60;;;;;;;1.75;83.20;97603.94;5045453;28;20053;-80
2021/01/31 09:37:28;;;;;;;14.05;8.68;;;;;;;1.67;82.27;97579.00;5055528;28;20048;-80
2021/01/31 09:39:56;;;;;;;12.65;8.30;;;;;;;1.86;82.12;97591.22;5055179;28;20041;-81
2021/01/31 09:42:28;;;;;;;12.67;8.20;;;;;;;2.09;83.84;97604.75;5054291;28;20045;-80
2021/01/31 09:44:58;;;;;;;12.40;7.80;;;;;;;2.23;82.51;97604.09;5054155;28;20056;-81
2021/01/31 09:47:25;;;;;;;13.10;7.25;;;;;;;2.15;82.40;97614.81;5052514;28;20061;-81
2021/01/31 09:49:54;;;;;;;13.52;8.00;;;;;;;1.93;82.83;97581.50;5055080;28;20053;-81
2021/01/31 09:52:21;;;;;;;14.32;8.82;;;;;;;2.18;81.41;97616.31;5054138;28;20045;-81
2021/01/31 09:54:47;;;;;;;16.38;8.48;;;;;;;2.24;81.88;97600.41;5054363;28;22094;-81
2021/01/31 09:57:22;;;;;;;14.07;8.85;;;;;;;2.12;80.39;97583.84;5054671;28;20119;-81
2021/01/31 09:59:49;;;;;;;14.05;8.52;;;;;;;2.24;82.55;97595.03;5055102;28;20485;-81
2021/01/31 10:02:19;;;;;;;12.80;7.88;;;;;;;2.38;80.99;97601.53;5054341;28;20072;-81
2021/01/31 10:04:46;;;;;;;;;;;;;;;2.50;81.22;97603.84;5053869;28;20076;-81
2021/01/31 10:07:21;;;;;;;12.80;7.13;;;;;;;2.32;81.12;97602.22;5054282;28;19925;-80
2021/01/31 10:09:50;;;;;;;12.63;8.10;;;;;;;2.29;80.28;97590.00;5054416;28;20408;-81
2021/01/31 10:12:27;;;;;;;12.80;7.70;;;;;;;2.42;80.72;97602.84;5054092;28;20041;-80
2021/01/31 10:14:55;;;;;;;13.43;8.30;;;;;;;2.45;79.88;97607.03;5053553;28;20759;-81
2021/01/31 10:17:41;;;;;;;13.50;8.55;;;;;;;2.41;80.87;97595.84;5053842;28;20511;-81
2021/01/31 10:20:29;;;;;;;12.45;8.23;;;;;;;2.51;80.38;97603.69;5054327;28;20049;-80
2021/01/31 10:23:01;;;;;;;12.50;8.27;;;;;;;2.54;80.45;97603.34;5053776;28;20443;-81
2021/01/31 10:25:27;;;;;;;14.18;9.32;;;;;;;2.47;80.18;97589.78;5049507;28;20091;-81
2021/01/31 10:27:57;;;;;;;16.15;9.98;;;;;;;2.52;79.84;97602.69;5049351;28;20083;-81
2021/01/31 10:30:28;;;;;;;14.20;8.30;;;;;;;2.44;80.59;97589.31;5053899;28;20052;-82
2021/01/31 10:32:56;;;;;;;14.35;8.43;;;;;;;2.61;80.51;97592.75;5054058;28;20049;-80
2021/01/31 10:35:47;;;;;;;13.60;9.10;;;;;;;2.77;80.54;97598.06;5053380;28;20059;-80
2021/01/31 10:38:29;;;;;;;11.90;7.68;;;;;;;2.89;80.29;97603.03;5035423;28;20052;-79
2021/01/31 10:40:56;;;;;;;12.77;8.63;;;;;;;2.74;79.14;97581.47;5034175;28;20045;-80
2021/01/31 10:43:23;;;;;;;11.63;7.65;;;;;;;2.94;79.19;97598.84;5049323;28;20550;-79
2021/01/31 10:45:50;;;;;;;11.55;7.85;;;;;;;2.80;78.22;97581.63;5053154;28;20045;-79
2021/01/31 10:48:17;;;;;;;12.82;8.93;;;;;;;2.92;79.49;97591.97;5053769;28;20076;-80
2021/01/31 10:50:43;;;;;;;13.20;8.48;;;;;;;2.98;78.89;97577.84;5051910;28;20417;-80
2021/01/31 10:53:16;;;;;;;7.82;5.35;;;;;;;2.80;79.99;97578.94;5053511;28;20094;-80
2021/01/31 10:55:43;;;;;;;13.48;8.65;;;;;;;2.95;78.99;97579.03;5053537;28;20071;-79
2021/01/31 10:58:11;;;;;;;11.23;7.38;;;;;;;3.13;78.37;97589.53;5053817;28;20048;-80
2021/01/31 11:00:37;;;;;;;12.68;7.18;;;;;;;3.22;78.62;97574.16;5053724;28;20049;-79
2021/01/31 11:03:04;;;;;;;15.75;8.50;;;;;;;3.21;78.47;97575.22;5053788;28;20102;-80
2021/01/31 11:05:30;;;;;;;10.65;6.63;;;;;;;3.21;77.91;97582.41;5053184;28;20055;-79
2021/01/31 11:07:57;;;;;;;14.70;9.32;;;;;;;3.16;78.81;97575.75;5052197;28;20600;-80
2021/01/31 11:10:24;;;;;;;11.88;7.68;;;;;;;3.21;77.92;97575.22;5053731;28;20057;-79
2021/01/31 11:12:51;;;;;;;8.10;4.78;;;;;;;3.14;78.56;97582.28;5053374;28;20049;-80
2021/01/31 11:15:18;;;;;;;12.07;7.30;;;;;;;3.01;77.99;97553.31;5052749;28;20048;-79
2021/01/31 11:17:45;;;;;;;14.82;8.18;;;;;;;3.17;78.90;97573.88;5053406;28;20139;-80
2021/01/31 11:20:12;;;;;;;12.82;7.25;;;;;;;3.24;78.08;97582.91;5053492;28;20053;-79
2021/01/31 11:22:38;;;;;;;15.88;8.95;;;;;;;3.34;77.96;97582.66;5053184;28;20497;-79
2021/01/31 11:25:06;;;;;;;12.93;8.00;;;;;;;3.44;76.95;97574.38;5052875;28;20049;-80
2021/01/31 11:27:35;;;;;;;12.70;8.00;;;;;;;3.54;77.70;97591.13;5052752;28;20060;-79
2021/01/31 11:30:03;;;;;;;11.98;8.20;;;;;;;3.32;75.85;97572.09;5042369;28;20040;-80
2021/01/31 11:32:29;;;;;;;12.50;7.25;;;;;;;3.40;77.79;97581.94;5052919;28;20045;-80
2021/01/31 11:34:55;;;;;;;11.63;7.07;;;;;;;3.31;77.75;97558.84;5041503;28;20052;-81
2021/01/31 11:37:36;;;;;;;12.05;7.43;;;;;;;3.50;77.54;97577.19;5050766;28;20049;-80
2021/01/31 11:40:04;;;;;;;11.95;7.28;;;;;;;3.43;77.10;97580.75;5052710;28;20045;-80
2021/01/31 11:42:30;;;;;;;14.48;7.88;;;;;;;3.43;77.15;97581.59;5051732;28;20045;-81
2021/01/31 11:44:56;;;;;;;11.73;7.63;;;;;;;3.53;77.33;97578.69;5051874;28;20045;-81
2021/01/31 11:47:24;;;;;;;10.70;7.15;;;;;;;3.39;75.85;97556.13;5053049;28;20712;-80
2021/01/31 11:49:52;;;;;;;13.32;7.63;;;;;;;3.42;78.32;97565.66;5052172;28;20091;-80
2021/01/31 11:52:18;;;;;;;12.82;7.00;;;;;;;3.34;77.97;97569.22;5051465;28;20049;-81
2021/01/31 11:54:45;;;;;;;14.50;8.10;;;;;;;3.47;76.48;97590.97;5051903;28;20102;-83
2021/01/31 11:57:11;;;;;;;16.08;7.93;;;;;;;3.38;77.35;97575.09;5052795;28;20063;-81
2021/01/31 11:59:40;;;;;;;12.73;7.65;;;;;;;3.28;77.54;97554.69;5052945;28;20111;-81
2021/01/31 12:02:06;;;;;;;12.48;7.68;;;;;;;3.34;77.99;97534.31;5052271;28;20049;-81
2021/01/31 12:04:33;;;;;;;12.35;7.75;;;;;;;3.45;77.24;97576.91;5051726;28;20049;-81
2021/01/31 12:07:00;;;;;;;12.88;7.72;;;;;;;3.38;76.90;97541.00;5052680;28;20053;-81